createdAt,value
2018-06-18T00:00:17.367Z,81.01
2018-06-18T00:02:47.326Z,80.15
2018-06-18T00:05:17.329Z,79.54
2018-06-18T00:07:47.751Z,80.33
2018-06-18T00:10:17.677Z,80.07
2018-06-18T00:12:47.411Z,80.62
2018-06-18T00:15:17.208Z,80.48
2018-06-18T00:17:46.936Z,81.62
2018-06-18T00:20:16.739Z,82.78
2018-06-18T00:22:46.575Z,82.84
2018-06-18T00:25:16.415Z,83.87
2018-06-18T00:27:46.207Z,83.89
2018-06-18T00:30:16.165Z,84.61
2018-06-18T00:32:45.865Z,84.66
2018-06-18T00:35:15.647Z,84.13
2018-06-18T00:37:45.071Z,84.18
2018-06-18T00:40:14.750Z,84.53
2018-06-18T00:42:44.504Z,84.91
2018-06-18T00:45:14.206Z,85.45
2018-06-18T00:47:43.935Z,85.78
2018-06-18T00:50:13.710Z,85.57
2018-06-18T00:52:43.783Z,84.96
2018-06-18T00:55:23.520Z,85.02
2018-06-18T00:57:53.211Z,85.25
2018-06-18T01:00:23.083Z,85.34
2018-06-18T01:02:54.813Z,84.98
2018-06-18T01:05:24.595Z,84.85
2018-06-18T01:07:54.437Z,84.30
2018-06-18T01:10:24.042Z,84.84
2018-06-18T01:12:53.779Z,85.70
2018-06-18T01:15:23.463Z,84.52
2018-06-18T01:17:53.371Z,85.23
2018-06-18T01:20:23.089Z,85.11
2018-06-18T01:23:01.447Z,85.84
2018-06-18T01:25:31.147Z,85.41
2018-06-18T01:28:00.847Z,85.68
2018-06-18T01:30:30.711Z,85.81
2018-06-18T01:33:00.324Z,86.15
2018-06-18T01:35:30.131Z,86.51
2018-06-18T01:37:59.845Z,85.66
2018-06-18T01:40:29.673Z,85.51
2018-06-18T01:42:59.455Z,85.93
2018-06-18T01:45:29.194Z,85.67
2018-06-18T01:47:59.080Z,85.47
2018-06-18T01:50:28.887Z,85.75
2018-06-18T01:52:58.675Z,85.75
2018-06-18T01:55:28.540Z,86.32
2018-06-18T01:57:58.224Z,86.59
2018-06-18T02:00:28.070Z,85.57
2018-06-18T02:02:57.783Z,86.79
2018-06-18T02:05:27.625Z,86.22
2018-06-18T02:07:57.867Z,87.16
2018-06-18T02:10:28.345Z,86.94
2018-06-18T02:12:59.087Z,86.88
2018-06-18T02:15:28.938Z,87.28
2018-06-18T02:17:58.656Z,87.31
2018-06-18T02:20:28.419Z,87.42
2018-06-18T02:22:58.325Z,87.61
2018-06-18T02:25:28.017Z,87.62
2018-06-18T02:28:02.676Z,87.26
2018-06-18T02:30:37.970Z,87.23
2018-06-18T02:33:14.060Z,86.86
2018-06-18T02:35:49.123Z,86.83
2018-06-18T02:38:24.172Z,86.53
2018-06-18T02:40:54.022Z,86.71
2018-06-18T02:43:23.764Z,87.43
2018-06-18T02:45:53.596Z,87.90
2018-06-18T02:48:23.424Z,88.70
2018-06-18T02:50:53.272Z,88.34
2018-06-18T02:53:23.205Z,87.86
2018-06-18T02:55:53.399Z,87.20
2018-06-18T02:58:23.154Z,87.27
2018-06-18T03:00:52.852Z,87.29
2018-06-18T03:03:22.679Z,87.33
2018-06-18T03:05:52.391Z,87.15
2018-06-18T03:08:22.151Z,86.26
2018-06-18T03:10:51.866Z,87.07
2018-06-18T03:13:21.369Z,86.10
2018-06-18T03:15:51.791Z,85.85
2018-06-18T03:18:26.819Z,85.76
2018-06-18T03:21:02.038Z,85.54
2018-06-18T03:23:36.868Z,85.45
2018-06-18T03:26:11.955Z,84.85
2018-06-18T03:28:47.128Z,84.68
2018-06-18T03:31:17.244Z,85.59
2018-06-18T03:33:46.943Z,84.87
2018-06-18T03:36:16.755Z,84.94
2018-06-18T03:38:46.272Z,85.64
2018-06-18T03:41:16.820Z,84.66
2018-06-18T03:43:51.878Z,85.17
2018-06-18T03:46:21.693Z,84.04
2018-06-18T03:48:51.614Z,84.01
2018-06-18T03:51:21.312Z,83.76
2018-06-18T03:53:50.837Z,82.77
2018-06-18T03:56:20.647Z,81.91
2018-06-18T03:58:50.442Z,81.71
2018-06-18T04:01:30.296Z,81.66
2018-06-18T04:04:08.008Z,80.99
2018-06-18T04:06:43.048Z,80.67
2018-06-18T04:09:18.079Z,80.53
2018-06-18T04:11:52.851Z,80.31
2018-06-18T04:14:22.563Z,79.51
2018-06-18T04:16:52.123Z,79.33
2018-06-18T04:19:22.121Z,78.73
2018-06-18T04:21:52.063Z,77.89
2018-06-18T04:24:21.811Z,77.71
2018-06-18T04:26:51.251Z,76.75
2018-06-18T04:29:23.040Z,76.34
2018-06-18T04:31:54.391Z,76.67
2018-06-18T04:34:36.461Z,75.76
2018-06-18T04:37:06.311Z,75.20
2018-06-18T04:39:36.079Z,75.39
2018-06-18T04:42:11.218Z,74.26
2018-06-18T04:44:46.356Z,73.63
2018-06-18T04:47:21.357Z,72.33
2018-06-18T04:49:56.063Z,71.02
2018-06-18T04:52:25.947Z,69.13
2018-06-18T04:54:55.879Z,68.41
2018-06-18T04:57:25.667Z,66.76
2018-06-18T05:00:05.721Z,64.86
2018-06-18T05:02:35.453Z,62.88
2018-06-18T05:05:05.221Z,59.40
2018-06-18T05:07:34.958Z,55.80
2018-06-18T05:10:26.020Z,52.25
2018-06-18T05:12:57.341Z,49.65
2018-06-18T05:15:43.319Z,45.60
2018-06-18T05:18:13.476Z,44.40
2018-06-18T05:20:43.844Z,43.13
2018-06-18T05:23:17.395Z,42.91
2018-06-18T05:25:53.751Z,44.96
2018-06-18T05:28:24.138Z,46.54
2018-06-18T05:30:55.113Z,46.78
2018-06-18T05:33:25.680Z,47.17
2018-06-18T05:35:56.201Z,47.11
2018-06-18T05:38:35.001Z,44.21
2018-06-18T05:41:05.299Z,41.32
2018-06-18T05:43:35.675Z,38.03
2018-06-18T05:46:06.010Z,36.83
2018-06-18T05:48:36.323Z,34.10
2018-06-18T05:51:06.658Z,32.13
2018-06-18T05:53:36.947Z,30.30
2018-06-18T05:56:07.276Z,31.19
2018-06-18T05:58:37.571Z,32.26
2018-06-18T06:01:07.891Z,34.00
2018-06-18T06:03:38.458Z,34.62
2018-06-18T06:06:08.940Z,35.01
2018-06-18T06:08:39.308Z,33.13
2018-06-18T06:11:09.647Z,31.93
2018-06-18T06:13:39.932Z,30.64
2018-06-18T06:16:10.271Z,30.26
2018-06-18T06:18:40.576Z,29.28
2018-06-18T06:21:12.404Z,27.33
2018-06-18T06:23:43.403Z,26.92
2018-06-18T06:26:14.696Z,27.20
2018-06-18T06:28:44.663Z,27.60
2018-06-18T06:31:14.971Z,26.25
2018-06-18T06:33:45.041Z,25.56
2018-06-18T06:36:15.611Z,25.28
2018-06-18T06:38:45.659Z,25.19
2018-06-18T06:41:15.647Z,24.46
2018-06-18T06:43:45.671Z,23.61
2018-06-18T06:46:15.654Z,23.93
2018-06-18T06:48:46.374Z,23.01
2018-06-18T06:51:16.424Z,22.87
2018-06-18T06:53:46.118Z,23.96
2018-06-18T06:56:16.121Z,21.94
2018-06-18T06:58:46.103Z,21.92
2018-06-18T07:01:15.891Z,22.14
2018-06-18T07:03:46.216Z,21.76
2018-06-18T07:06:18.088Z,20.76
2018-06-18T07:08:48.119Z,22.38
2018-06-18T07:11:19.155Z,22.39
2018-06-18T07:13:49.191Z,22.22
2018-06-18T07:16:19.321Z,22.87
2018-06-18T07:18:49.355Z,20.86
2018-06-18T07:21:19.371Z,21.15
2018-06-18T07:23:49.369Z,20.75
2018-06-18T07:26:19.486Z,19.50
2018-06-18T07:28:49.489Z,19.35
2018-06-18T07:31:19.508Z,20.00
2018-06-18T07:33:49.635Z,23.58
2018-06-18T07:36:19.738Z,23.12
2018-06-18T07:38:49.765Z,23.21
2018-06-18T07:41:19.780Z,24.23
2018-06-18T07:43:50.112Z,24.44
2018-06-18T07:46:20.307Z,26.17
2018-06-18T07:48:50.352Z,27.72
2018-06-18T07:51:20.360Z,28.85
2018-06-18T07:53:50.643Z,30.64
2018-06-18T07:56:20.919Z,31.76
2018-06-18T07:58:51.188Z,33.13
2018-06-18T08:01:21.525Z,34.03
2018-06-18T08:03:51.838Z,35.49
2018-06-18T08:06:22.195Z,33.60
2018-06-18T08:08:52.465Z,31.97
2018-06-18T08:11:22.767Z,30.05
2018-06-18T08:13:53.075Z,27.54
2018-06-18T08:16:23.359Z,25.61
2018-06-18T08:18:53.704Z,24.54
2018-06-18T08:21:23.707Z,23.15
2018-06-18T08:23:53.762Z,22.98
2018-06-18T08:26:23.743Z,22.60
2018-06-18T08:28:53.788Z,21.99
2018-06-18T08:31:23.823Z,22.30
2018-06-18T08:33:54.852Z,22.94
2018-06-18T08:36:24.924Z,21.81
2018-06-18T08:38:54.927Z,22.39
2018-06-18T08:41:24.957Z,22.11
2018-06-18T08:43:54.995Z,22.85
2018-06-18T08:46:25.026Z,22.76
2018-06-18T08:49:00.468Z,22.04
2018-06-18T08:51:35.707Z,22.27
2018-06-18T08:54:11.106Z,22.15
2018-06-18T08:56:46.791Z,22.62
2018-06-18T08:59:22.329Z,22.39
2018-06-18T09:01:52.611Z,22.31
2018-06-18T09:04:28.484Z,21.66
2018-06-18T09:07:02.309Z,20.80
2018-06-18T09:09:32.352Z,19.98
2018-06-18T09:12:02.350Z,20.74
2018-06-18T09:14:32.391Z,21.87
2018-06-18T09:17:02.396Z,22.96
2018-06-18T09:19:32.683Z,24.29
2018-06-18T09:22:02.991Z,26.93
2018-06-18T09:24:33.278Z,30.81
2018-06-18T09:27:09.163Z,31.84
2018-06-18T09:29:44.373Z,31.46
2018-06-18T09:32:15.042Z,32.12
2018-06-18T09:34:45.523Z,31.82
2018-06-18T09:37:15.895Z,32.86
2018-06-18T09:39:46.163Z,34.58
2018-06-18T09:42:16.504Z,36.06
2018-06-18T09:44:46.784Z,35.81
2018-06-18T09:47:17.115Z,35.55
2018-06-18T09:49:52.631Z,35.07
2018-06-18T09:53:26.815Z,35.49
2018-06-18T09:56:02.269Z,35.54
2018-06-18T09:58:38.074Z,36.21
2018-06-18T10:01:16.718Z,37.31
2018-06-18T10:03:47.027Z,37.55
2018-06-18T10:06:17.387Z,37.51
2018-06-18T10:08:47.893Z,38.40
2018-06-18T10:11:18.221Z,37.89
2018-06-18T10:13:48.498Z,38.13
2018-06-18T10:16:18.835Z,38.27
2018-06-18T10:18:49.113Z,38.04
2018-06-18T10:21:19.470Z,37.50
2018-06-18T10:23:49.760Z,37.44
2018-06-18T10:26:20.139Z,37.52
2018-06-18T10:28:50.462Z,36.91
2018-06-18T10:31:21.091Z,36.63
2018-06-18T10:33:56.826Z,35.78
2018-06-18T10:36:32.459Z,36.27
2018-06-18T10:42:03.215Z,37.55
2018-06-18T10:44:33.491Z,36.98
2018-06-18T10:47:04.227Z,37.29
2018-06-18T10:49:34.508Z,35.74
2018-06-18T10:52:04.840Z,36.96
2018-06-18T10:54:35.193Z,36.78
2018-06-18T10:57:05.561Z,35.92
2018-06-18T10:59:36.071Z,36.16
2018-06-18T11:02:06.398Z,37.68
2018-06-18T11:04:36.715Z,38.66
2018-06-18T11:07:06.972Z,40.31
2018-06-18T11:09:37.030Z,37.79
2018-06-18T11:12:07.407Z,36.62
2018-06-18T11:14:37.788Z,35.75
2018-06-18T11:17:13.523Z,34.30
2018-06-18T11:19:49.007Z,35.37
2018-06-18T11:22:19.379Z,34.88
2018-06-18T11:24:55.496Z,34.46
2018-06-18T11:27:25.959Z,34.15
2018-06-18T11:29:56.326Z,34.16
2018-06-18T11:32:27.069Z,34.44
2018-06-18T11:34:57.646Z,33.89
2018-06-18T11:37:28.294Z,35.71
2018-06-18T11:39:58.302Z,35.61
2018-06-18T11:42:28.591Z,37.00
2018-06-18T11:44:58.891Z,36.68
2018-06-18T11:47:29.260Z,35.26
2018-06-18T11:49:59.731Z,37.12
2018-06-18T11:52:30.119Z,37.56
2018-06-18T11:55:00.643Z,36.90
2018-06-18T11:57:31.016Z,37.83
2018-06-18T12:00:06.741Z,37.46
2018-06-18T12:02:42.175Z,36.96
2018-06-18T12:05:17.767Z,36.94
2018-06-18T12:07:53.299Z,35.65
2018-06-18T12:10:23.933Z,33.90
2018-06-18T12:12:54.273Z,32.13
2018-06-18T12:15:25.011Z,32.64
2018-06-18T12:17:55.397Z,33.43
2018-06-18T12:20:26.027Z,35.06
2018-06-18T12:22:56.427Z,34.02
2018-06-18T12:25:26.755Z,34.96
2018-06-18T12:27:57.199Z,33.66
2018-06-18T12:30:27.701Z,33.16
2018-06-18T12:32:58.063Z,35.11
2018-06-18T12:35:28.468Z,35.88
2018-06-18T12:37:59.881Z,32.18
2018-06-18T12:40:30.159Z,35.72
2018-06-18T12:43:00.727Z,34.17
2018-06-18T12:46:39.587Z,33.46
2018-06-18T12:49:15.139Z,33.57
2018-06-18T12:51:50.705Z,34.60
2018-06-18T12:54:26.528Z,34.72
2018-06-18T12:56:58.295Z,35.80
2018-06-18T12:59:28.692Z,34.76
2018-06-18T13:02:05.019Z,36.65
2018-06-18T13:04:38.416Z,37.36
2018-06-18T13:07:08.759Z,34.71
2018-06-18T13:09:39.315Z,34.97
2018-06-18T13:12:09.719Z,35.19
2018-06-18T13:14:40.094Z,34.42
2018-06-18T13:17:10.369Z,33.54
2018-06-18T13:19:40.703Z,35.64
2018-06-18T13:22:11.051Z,36.03
2018-06-18T13:24:41.330Z,36.00
2018-06-18T13:27:11.627Z,35.18
2018-06-18T13:29:42.033Z,35.34
2018-06-18T13:32:12.358Z,34.87
2018-06-18T13:34:42.612Z,34.20
2018-06-18T13:37:18.114Z,33.61
2018-06-18T13:39:53.694Z,34.04
2018-06-18T13:42:29.182Z,31.93
2018-06-18T13:45:04.659Z,32.76
2018-06-18T13:47:40.049Z,31.88
2018-06-18T13:50:10.331Z,32.44
2018-06-18T13:52:40.643Z,33.00
2018-06-18T13:57:39.010Z,36.85
2018-06-18T14:00:10.079Z,36.62
2018-06-18T14:02:40.375Z,37.94
2018-06-18T14:05:10.658Z,34.71
2018-06-18T14:07:40.958Z,35.37
2018-06-18T14:10:11.290Z,35.73
2018-06-18T14:12:41.541Z,35.50
2018-06-18T14:15:11.864Z,35.07
2018-06-18T14:17:42.302Z,34.71
2018-06-18T14:20:17.672Z,34.08
2018-06-18T14:22:47.986Z,33.85
2018-06-18T14:25:18.319Z,33.52
2018-06-18T14:27:48.822Z,32.92
2018-06-18T14:30:24.347Z,32.08
2018-06-18T14:32:59.928Z,31.82
2018-06-18T14:35:35.445Z,32.21
2018-06-18T14:40:33.454Z,33.59
2018-06-18T14:43:03.718Z,33.82
2018-06-18T14:45:34.066Z,33.06
2018-06-18T14:48:04.575Z,33.15
2018-06-18T14:50:34.864Z,33.64
2018-06-18T14:53:05.102Z,35.06
2018-06-18T14:55:35.366Z,35.32
2018-06-18T14:58:05.678Z,35.77
2018-06-18T15:00:36.282Z,36.73
2018-06-18T15:03:06.674Z,36.19
2018-06-18T15:05:40.074Z,35.01
2018-06-18T15:08:10.397Z,36.01
2018-06-18T15:10:45.920Z,34.42
2018-06-18T15:13:16.202Z,36.69
2018-06-18T15:15:51.671Z,36.37
2018-06-18T15:18:22.186Z,35.77
2018-06-18T15:20:54.739Z,37.28
2018-06-18T15:23:25.038Z,36.43
2018-06-18T15:25:55.072Z,36.69
2018-06-18T15:28:25.562Z,35.31
2018-06-18T15:30:55.855Z,37.16
2018-06-18T15:33:26.191Z,36.24
2018-06-18T15:35:56.449Z,36.03
2018-06-18T15:38:26.764Z,36.58
2018-06-18T15:40:57.276Z,37.44
2018-06-18T15:43:27.551Z,37.57
2018-06-18T15:45:57.841Z,37.31
2018-06-18T15:48:28.114Z,37.26
2018-06-18T15:50:58.414Z,35.54
2018-06-18T15:53:28.679Z,36.33
2018-06-18T15:55:58.979Z,36.94
2018-06-18T15:58:29.242Z,35.20
2018-06-18T16:00:59.534Z,36.45
2018-06-18T16:03:29.843Z,35.36
2018-06-18T16:06:00.102Z,35.51
2018-06-18T16:08:30.402Z,36.90
2018-06-18T16:11:00.667Z,35.58
2018-06-18T16:13:30.955Z,37.52
2018-06-18T16:16:01.538Z,37.23
2018-06-18T16:18:31.822Z,37.68
2018-06-18T16:21:02.090Z,36.87
2018-06-18T16:23:32.396Z,37.80
2018-06-18T16:26:02.750Z,36.30
2018-06-18T16:28:33.014Z,36.55
2018-06-18T16:31:03.399Z,38.61
2018-06-18T16:33:33.674Z,36.86
2018-06-18T16:36:03.935Z,37.41
2018-06-18T16:38:33.963Z,37.23
2018-06-18T16:41:04.346Z,37.82
2018-06-18T16:43:34.604Z,38.74
2018-06-18T16:46:05.106Z,38.35
2018-06-18T16:48:35.366Z,38.94
2018-06-18T16:51:05.654Z,40.59
2018-06-18T16:53:35.923Z,39.92
2018-06-18T16:56:06.205Z,39.09
2018-06-18T16:58:36.529Z,39.51
2018-06-18T17:01:06.808Z,39.92
2018-06-18T17:03:37.102Z,40.42
2018-06-18T17:06:07.381Z,39.07
2018-06-18T17:08:37.690Z,39.17
2018-06-18T17:11:08.014Z,40.57
2018-06-18T17:13:38.322Z,39.48
2018-06-18T17:16:08.338Z,39.40
2018-06-18T17:18:38.674Z,40.05
2018-06-18T17:21:08.962Z,39.69
2018-06-18T17:23:39.219Z,40.23
2018-06-18T17:26:09.519Z,42.09
2018-06-18T17:28:39.795Z,42.17
2018-06-18T17:31:10.122Z,42.46
2018-06-18T17:33:40.657Z,42.17
2018-06-18T17:36:10.963Z,42.60
2018-06-18T17:38:41.603Z,43.23
2018-06-18T17:41:12.042Z,43.40
2018-06-18T17:43:42.295Z,43.78
2018-06-18T17:46:12.610Z,43.54
2018-06-18T17:48:42.883Z,44.85
2018-06-18T17:51:13.171Z,44.77
2018-06-18T17:53:43.468Z,45.49
2018-06-18T17:56:13.742Z,46.30
2018-06-18T17:58:44.087Z,46.17
2018-06-18T18:01:14.384Z,46.72
2018-06-18T18:03:44.923Z,46.16
2018-06-18T18:06:15.202Z,46.60
2018-06-18T18:08:45.595Z,47.06
2018-06-18T18:11:36.329Z,47.98
2018-06-18T18:14:07.524Z,47.68
2018-06-18T18:16:37.883Z,48.93
2018-06-18T18:19:08.138Z,49.10
2018-06-18T18:21:37.836Z,49.29
2018-06-18T18:24:08.120Z,49.59
2018-06-18T18:26:37.819Z,49.80
2018-06-18T18:29:07.905Z,50.73
2018-06-18T18:31:37.890Z,50.94
2018-06-18T18:34:07.579Z,51.28
2018-06-18T18:36:37.243Z,51.77
2018-06-18T18:39:08.811Z,51.97
2018-06-18T18:41:39.123Z,51.52
2018-06-18T18:44:09.258Z,52.72
2018-06-18T18:46:39.046Z,52.80
2018-06-18T18:49:08.482Z,53.99
2018-06-18T18:51:37.902Z,53.68
2018-06-18T18:54:10.279Z,54.16
2018-06-18T18:57:53.223Z,54.42
2018-06-18T19:00:23.538Z,54.09
2018-06-18T19:02:53.915Z,55.12
2018-06-18T19:05:23.800Z,55.69
2018-06-18T19:07:54.238Z,56.52
2018-06-18T19:10:28.387Z,57.22
2018-06-18T19:12:59.814Z,56.62
2018-06-18T19:15:29.871Z,57.20
2018-06-18T19:18:01.268Z,57.79
2018-06-18T19:20:33.669Z,58.05
2018-06-18T19:23:03.365Z,58.21
2018-06-18T19:25:33.030Z,58.74
2018-06-18T19:28:02.770Z,59.35
2018-06-18T19:30:33.656Z,59.59
2018-06-18T19:33:08.415Z,59.94
2018-06-18T19:35:38.091Z,60.66
2018-06-18T19:38:08.138Z,60.91
2018-06-18T19:40:37.815Z,61.00
2018-06-18T19:43:07.618Z,61.09
2018-06-18T19:45:41.282Z,61.44
2018-06-18T19:48:15.414Z,61.91
2018-06-18T19:50:45.208Z,61.49
2018-06-18T19:53:15.051Z,62.09
2018-06-18T19:55:44.763Z,62.11
2018-06-18T19:58:14.451Z,62.44
2018-06-18T20:00:48.322Z,63.02
2018-06-18T20:03:18.073Z,62.98
2018-06-18T20:05:48.746Z,63.43
2018-06-18T20:08:20.887Z,63.52
2018-06-18T20:10:50.610Z,63.61
2018-06-18T20:13:20.326Z,63.49
2018-06-18T20:15:50.018Z,64.06
2018-06-18T20:18:19.711Z,64.57
2018-06-18T20:20:49.798Z,64.89
2018-06-18T20:23:22.513Z,65.53
2018-06-18T20:25:59.919Z,65.88
2018-06-18T20:28:29.673Z,66.51
2018-06-18T20:30:59.346Z,67.22
2018-06-18T20:33:29.638Z,67.72
2018-06-18T20:36:04.766Z,67.92
2018-06-18T20:38:34.515Z,68.26
2018-06-18T20:41:04.286Z,68.63
2018-06-18T20:43:42.178Z,68.92
2018-06-18T20:46:11.885Z,69.43
2018-06-18T20:48:41.641Z,69.35
2018-06-18T20:51:11.330Z,70.10
2018-06-18T20:53:41.018Z,70.12
2018-06-18T20:56:10.723Z,70.41
2018-06-18T20:58:40.425Z,69.84
2018-06-18T21:01:10.246Z,69.38
2018-06-18T21:03:39.944Z,69.20
2018-06-18T21:06:09.666Z,67.96
2018-06-18T21:08:39.067Z,68.23
2018-06-18T21:11:08.749Z,68.24
2018-06-18T21:13:38.670Z,68.00
2018-06-18T21:16:08.342Z,67.27
2018-06-18T21:18:38.015Z,67.43
2018-06-18T21:21:07.798Z,68.17
2018-06-18T21:23:37.494Z,67.98
2018-06-18T21:26:07.202Z,68.14
2018-06-18T21:28:36.882Z,67.46
2018-06-18T21:31:06.680Z,67.81
2018-06-18T21:33:36.478Z,69.33
2018-06-18T21:36:06.370Z,70.62
2018-06-18T21:38:36.116Z,71.68
2018-06-18T21:41:05.832Z,71.77
2018-06-18T21:43:35.643Z,72.75
2018-06-18T21:46:06.215Z,73.11
2018-06-18T21:48:35.907Z,73.45
2018-06-18T21:51:05.650Z,73.60
2018-06-18T21:53:35.370Z,73.83
2018-06-18T21:56:05.448Z,73.38
2018-06-18T21:58:35.135Z,74.58
2018-06-18T22:01:04.872Z,74.78
2018-06-18T22:03:34.326Z,74.43
2018-06-18T22:06:04.027Z,74.47
2018-06-18T22:08:33.746Z,75.20
2018-06-18T22:11:03.485Z,75.08
2018-06-18T22:13:33.190Z,75.30
2018-06-18T22:16:02.927Z,75.32
2018-06-18T22:18:32.626Z,76.30
2018-06-18T22:21:02.290Z,75.61
2018-06-18T22:23:31.962Z,75.45
2018-06-18T22:26:01.649Z,76.48
2018-06-18T22:28:36.648Z,76.46
2018-06-18T22:31:06.373Z,77.07
2018-06-18T22:33:36.375Z,76.68
2018-06-18T22:36:06.083Z,76.80
2018-06-18T22:38:35.901Z,77.54
2018-06-18T22:41:05.666Z,76.97
2018-06-18T22:43:35.451Z,77.39
2018-06-18T22:46:05.165Z,77.12
2018-06-18T22:48:34.911Z,77.48
2018-06-18T22:51:04.338Z,77.45
2018-06-18T22:53:33.782Z,77.95
2018-06-18T22:56:03.457Z,78.15
2018-06-18T22:58:33.242Z,78.63
2018-06-18T23:01:02.991Z,78.32
2018-06-18T23:03:32.756Z,78.19
2018-06-18T23:06:02.231Z,78.99
2018-06-18T23:08:31.924Z,79.34
2018-06-18T23:11:01.663Z,79.91
2018-06-18T23:13:34.308Z,79.45
2018-06-18T23:16:05.595Z,80.44
2018-06-18T23:18:35.321Z,80.22
2018-06-18T23:21:05.031Z,80.88
2018-06-18T23:23:34.758Z,80.45
2018-06-18T23:26:04.486Z,81.17
2018-06-18T23:28:52.818Z,80.62
2018-06-18T23:31:22.575Z,81.78
2018-06-18T23:33:52.850Z,82.04
2018-06-18T23:36:22.584Z,81.72
2018-06-18T23:38:52.282Z,82.10
2018-06-18T23:41:23.001Z,82.18
2018-06-18T23:43:52.757Z,82.32
2018-06-18T23:46:22.470Z,83.00
2018-06-18T23:48:52.203Z,82.88
2018-06-18T23:51:21.904Z,82.34
2018-06-18T23:53:51.779Z,83.31
2018-06-18T23:56:21.494Z,82.82
2018-06-18T23:58:51.586Z,83.65
